HEZ weather

Tlalnepantla de Baz Heliport
Tlalnepantla de Baz, Mexico, Mexico

Public forecast

Using degrees Celsius for public forecast. Weather courtesy of forecast.io.

METAR (pilot weather report)

Closest report is Licenciado Benito Juarez International Airport, 9.3 nm (17.3 km) SE. Retrieved 2019/06/26 01:37 UTC (0 seconds ago):

MMMX 260137Z 09007KT 8SM BKN020CB BKN080 OVC200 18/11 A3031 NOSIG RMK 8/367 HZY DSNT OCNL LTGICCC WSW

TAF (pilot weather forecast)

Forecast is more than 12 hours old.

Closest forecast is Licenciado Benito Juarez International Airport, 9.3 nm (17.3 km) SE. Retrieved 2019/06/25 00:22 UTC (1 day ago):

TAF MMMX 252317Z 2600/2706 04010KT P6SM VC RA BKN020CB OVC090 TX23/2621Z TN17/2612Z TEMPO 2600/2604 6SM TSRA FM260600 00000KT P6SM SCT020 BKN080 FM261200 07005KT 5SM HZ SCT020 BKN080 PROB40 2612/2615 BKN020 FM261800 07010KT P6SM SCT020CB BKN080 TEMPO 2621/2701 4SM TSRA BKN020CB